createdAt,value
2019-03-17T00:02:00.803Z,7.90
2019-03-17T00:04:31.621Z,7.80
2019-03-17T00:06:59.991Z,7.80
2019-03-17T00:09:28.740Z,7.70
2019-03-17T00:11:57.819Z,7.60
2019-03-17T00:14:26.571Z,7.60
2019-03-17T00:16:55.605Z,7.50
2019-03-17T00:19:27.525Z,7.50
2019-03-17T00:21:55.266Z,7.40
2019-03-17T00:24:24.344Z,7.30
2019-03-17T00:26:53.091Z,7.20
2019-03-17T00:29:22.172Z,7.10
2019-03-17T00:31:50.905Z,6.90
2019-03-17T00:34:19.718Z,6.90
2019-03-17T00:36:48.471Z,6.80
2019-03-17T00:39:17.324Z,6.70
2019-03-17T00:41:46.139Z,6.70
2019-03-17T00:44:14.882Z,6.60
2019-03-17T00:46:44.252Z,6.50
2019-03-17T00:49:12.987Z,6.50
2019-03-17T00:51:41.844Z,6.50
2019-03-17T00:54:10.927Z,6.80
2019-03-17T00:56:39.743Z,6.80
2019-03-17T00:59:08.495Z,6.70
2019-03-17T01:01:37.236Z,6.80
2019-03-17T01:04:05.970Z,6.90
2019-03-17T01:06:34.787Z,6.90
2019-03-17T01:09:04.111Z,6.90
2019-03-17T01:11:33.028Z,6.90
2019-03-17T01:14:02.089Z,6.90
2019-03-17T01:16:30.934Z,6.80
2019-03-17T01:18:59.827Z,6.70
2019-03-17T01:21:28.596Z,6.80
2019-03-17T01:23:57.328Z,6.80
2019-03-17T01:26:26.311Z,7.20
2019-03-17T01:28:55.284Z,7.40
2019-03-17T01:31:24.079Z,7.50
2019-03-17T01:33:52.808Z,7.60
2019-03-17T01:36:21.646Z,7.70
2019-03-17T01:38:50.391Z,7.70
2019-03-17T01:41:19.150Z,7.70
2019-03-17T01:43:48.230Z,7.60
2019-03-17T01:46:16.962Z,7.60
2019-03-17T01:48:45.692Z,7.40
2019-03-17T01:51:17.584Z,7.30
2019-03-17T01:53:46.578Z,7.30
2019-03-17T01:56:15.590Z,7.20
2019-03-17T01:58:44.404Z,7.20
2019-03-17T02:01:13.140Z,7.20
2019-03-17T02:03:41.963Z,7.10
2019-03-17T02:06:10.856Z,7.30
2019-03-17T02:08:39.911Z,7.20
2019-03-17T02:11:08.635Z,7.20
2019-03-17T02:13:37.395Z,7.10
2019-03-17T02:16:06.217Z,7.00
2019-03-17T02:18:35.308Z,7.10
2019-03-17T02:21:04.187Z,7.10
2019-03-17T02:23:32.999Z,7.20
2019-03-17T02:26:01.719Z,7.20
2019-03-17T02:28:30.456Z,7.40
2019-03-17T02:30:59.201Z,7.70
2019-03-17T02:33:27.928Z,8.00
2019-03-17T02:35:56.669Z,8.10
2019-03-17T02:38:25.413Z,8.10
2019-03-17T02:40:54.356Z,8.00
2019-03-17T02:43:23.332Z,8.00
2019-03-17T02:45:52.457Z,7.80
2019-03-17T02:48:21.491Z,7.70
2019-03-17T02:50:50.732Z,7.70
2019-03-17T02:53:19.481Z,7.80
2019-03-17T02:55:48.457Z,7.80
2019-03-17T02:58:17.270Z,7.90
2019-03-17T03:00:46.007Z,8.00
2019-03-17T03:03:15.882Z,8.00
2019-03-17T03:05:54.606Z,7.90
2019-03-17T03:08:15.300Z,7.90
2019-03-17T03:10:44.046Z,8.00
2019-03-17T03:13:12.813Z,8.00
2019-03-17T03:15:41.594Z,8.00
2019-03-17T03:18:10.360Z,8.10
2019-03-17T03:20:39.184Z,8.30
2019-03-17T03:23:08.053Z,8.30
2019-03-17T03:25:36.800Z,8.40
2019-03-17T03:28:05.524Z,8.50
2019-03-17T03:30:34.253Z,8.60
2019-03-17T03:33:02.969Z,8.60
2019-03-17T03:35:31.941Z,8.50
2019-03-17T03:38:00.918Z,8.50
2019-03-17T03:40:29.743Z,8.60
2019-03-17T03:42:59.231Z,8.60
2019-03-17T03:45:27.996Z,8.60
2019-03-17T03:47:56.716Z,8.50
2019-03-17T03:50:25.464Z,8.40
2019-03-17T03:52:54.192Z,8.40
2019-03-17T03:55:23.013Z,8.40
2019-03-17T03:57:52.254Z,8.50
2019-03-17T04:00:21.064Z,8.50
2019-03-17T04:02:49.852Z,8.50
2019-03-17T04:05:18.632Z,8.50
2019-03-17T04:07:47.401Z,8.50
2019-03-17T04:10:16.532Z,8.60
2019-03-17T04:12:45.370Z,8.60
2019-03-17T04:15:14.487Z,8.70
2019-03-17T04:17:43.576Z,8.70
2019-03-17T04:20:12.715Z,8.70
2019-03-17T04:22:42.072Z,8.70
2019-03-17T04:25:14.836Z,8.80
2019-03-17T04:27:43.825Z,9.00
2019-03-17T04:30:12.735Z,9.00
2019-03-17T04:32:41.713Z,9.00
2019-03-17T04:35:10.524Z,8.90
2019-03-17T04:37:39.574Z,8.80
2019-03-17T04:40:08.879Z,8.80
2019-03-17T04:42:37.800Z,9.00
2019-03-17T04:45:07.793Z,9.00
2019-03-17T04:47:36.771Z,9.00
2019-03-17T04:50:05.994Z,9.10
2019-03-17T04:52:35.240Z,9.10
2019-03-17T04:55:04.499Z,9.10
2019-03-17T04:57:33.300Z,9.10
2019-03-17T05:00:02.516Z,9.10
2019-03-17T05:02:31.588Z,9.20
2019-03-17T05:05:00.434Z,9.20
2019-03-17T05:07:29.184Z,9.20
2019-03-17T05:09:58.175Z,9.30
2019-03-17T05:12:26.929Z,9.30
2019-03-17T05:14:55.905Z,9.30
2019-03-17T05:17:24.639Z,9.20
2019-03-17T05:19:53.605Z,9.20
2019-03-17T05:22:22.347Z,9.20
2019-03-17T05:24:51.377Z,9.30
2019-03-17T05:27:20.210Z,9.30
2019-03-17T05:29:49.190Z,9.30
2019-03-17T05:32:17.916Z,9.40
2019-03-17T05:34:46.655Z,9.40
2019-03-17T05:37:15.693Z,9.40
2019-03-17T05:39:44.414Z,9.40
2019-03-17T05:42:13.192Z,9.60
2019-03-17T05:44:42.224Z,9.70
2019-03-17T05:47:11.193Z,9.70
2019-03-17T05:49:39.930Z,9.70
2019-03-17T05:52:08.730Z,9.70
2019-03-17T05:54:37.530Z,9.70
2019-03-17T05:57:06.258Z,9.80
2019-03-17T05:59:35.255Z,9.80
2019-03-17T06:02:04.135Z,9.80
2019-03-17T06:04:33.123Z,9.80
2019-03-17T06:07:02.475Z,9.80
2019-03-17T06:09:31.208Z,9.80
2019-03-17T06:12:00.199Z,9.90
2019-03-17T06:14:29.184Z,9.80
2019-03-17T06:16:57.897Z,9.90
2019-03-17T06:19:26.883Z,9.90
2019-03-17T06:21:55.936Z,9.90
2019-03-17T06:24:24.667Z,9.90
2019-03-17T06:26:53.789Z,9.80
2019-03-17T06:29:22.594Z,9.80
2019-03-17T06:31:51.316Z,9.80
2019-03-17T06:34:20.058Z,9.80
2019-03-17T06:36:48.805Z,9.80
2019-03-17T06:39:17.859Z,9.80
2019-03-17T06:41:46.897Z,9.80
2019-03-17T06:44:16.139Z,9.80
2019-03-17T06:46:45.321Z,9.80
2019-03-17T06:49:14.168Z,9.80
2019-03-17T06:51:42.878Z,9.70
2019-03-17T06:54:11.655Z,9.70
2019-03-17T06:56:40.387Z,9.80
2019-03-17T06:59:09.396Z,9.80
2019-03-17T07:01:38.139Z,9.70
2019-03-17T07:04:06.934Z,9.70
2019-03-17T07:06:35.875Z,9.70
2019-03-17T07:09:06.726Z,9.80
2019-03-17T07:11:36.504Z,9.80
2019-03-17T07:14:06.584Z,9.90
2019-03-17T07:16:35.780Z,9.90
2019-03-17T07:19:04.712Z,10.00
2019-03-17T07:21:34.846Z,10.10
2019-03-17T07:24:03.671Z,10.20
2019-03-17T07:26:32.519Z,10.30
2019-03-17T07:29:01.738Z,10.30
2019-03-17T07:31:30.801Z,10.30
2019-03-17T07:33:59.938Z,10.30
2019-03-17T07:36:28.964Z,10.30
2019-03-17T07:38:57.795Z,10.40
2019-03-17T07:41:27.809Z,10.30
2019-03-17T07:43:56.796Z,10.20
2019-03-17T07:46:25.937Z,10.20
2019-03-17T07:48:54.667Z,10.20
2019-03-17T07:51:23.780Z,10.20
2019-03-17T07:53:52.760Z,10.30
2019-03-17T07:56:21.501Z,10.30
2019-03-17T07:58:50.367Z,10.30
2019-03-17T08:01:19.367Z,10.20
2019-03-17T08:03:48.193Z,10.30
2019-03-17T08:06:16.941Z,10.30
2019-03-17T08:08:45.843Z,10.30
2019-03-17T08:11:14.643Z,10.30
2019-03-17T08:13:43.412Z,10.50
2019-03-17T08:16:12.252Z,10.50
2019-03-17T08:18:40.994Z,10.50
2019-03-17T08:21:09.722Z,10.60
2019-03-17T08:23:38.640Z,10.60
2019-03-17T08:26:07.425Z,10.60
2019-03-17T08:28:36.560Z,10.70
2019-03-17T08:31:05.392Z,10.80
2019-03-17T08:33:34.489Z,10.90
2019-03-17T08:36:03.391Z,11.00
2019-03-17T08:38:32.163Z,11.00
2019-03-17T08:41:00.929Z,10.90
2019-03-17T08:43:30.032Z,10.80
2019-03-17T08:45:59.117Z,10.70
2019-03-17T08:48:27.860Z,10.70
2019-03-17T08:50:56.688Z,10.70
2019-03-17T08:53:25.789Z,10.70
2019-03-17T08:55:54.948Z,10.70
2019-03-17T08:58:23.739Z,10.60
2019-03-17T09:00:52.875Z,10.50
2019-03-17T09:03:22.273Z,10.50
2019-03-17T09:05:51.006Z,10.40
2019-03-17T09:08:20.085Z,10.40
2019-03-17T09:10:49.264Z,10.40
2019-03-17T09:13:21.189Z,10.50
2019-03-17T09:15:49.944Z,10.60
2019-03-17T09:18:18.660Z,10.60
2019-03-17T09:20:47.852Z,10.60
2019-03-17T09:23:16.617Z,10.50
2019-03-17T09:25:45.489Z,10.50
2019-03-17T09:28:14.264Z,10.60
2019-03-17T09:30:43.479Z,10.60
2019-03-17T09:33:12.507Z,10.70
2019-03-17T09:35:41.427Z,10.80
2019-03-17T09:38:10.145Z,10.90
2019-03-17T09:40:38.895Z,10.90
2019-03-17T09:43:07.655Z,10.80
2019-03-17T09:45:36.440Z,10.70
2019-03-17T09:48:05.426Z,10.70
2019-03-17T09:50:34.591Z,10.60
2019-03-17T09:53:03.459Z,10.50
2019-03-17T09:55:32.237Z,10.50
2019-03-17T09:58:02.091Z,10.40
2019-03-17T10:00:31.325Z,10.30
2019-03-17T10:03:00.156Z,10.20
2019-03-17T10:05:29.290Z,10.20
2019-03-17T10:07:58.631Z,10.10
2019-03-17T10:10:28.773Z,10.10
2019-03-17T10:12:57.988Z,10.10
2019-03-17T10:15:26.824Z,10.00
2019-03-17T10:17:55.577Z,9.90
2019-03-17T10:20:24.337Z,10.00
2019-03-17T10:22:53.777Z,10.00
2019-03-17T10:25:22.632Z,10.00
2019-03-17T10:27:51.758Z,9.90
2019-03-17T10:30:21.055Z,9.90
2019-03-17T10:32:50.157Z,9.90
2019-03-17T10:35:19.572Z,9.90
2019-03-17T10:37:48.296Z,10.00
2019-03-17T10:40:17.305Z,9.90
2019-03-17T10:42:46.057Z,9.90
2019-03-17T10:45:15.128Z,9.90
2019-03-17T10:47:44.630Z,9.90
2019-03-17T10:50:14.483Z,9.80
2019-03-17T10:52:43.372Z,9.80
2019-03-17T10:55:12.401Z,9.70
2019-03-17T10:57:42.416Z,9.60
2019-03-17T11:00:13.309Z,9.50
2019-03-17T11:02:42.899Z,9.40
2019-03-17T11:05:11.695Z,9.40
2019-03-17T11:07:40.450Z,9.40
2019-03-17T11:10:10.798Z,9.30
2019-03-17T11:12:39.892Z,9.40
2019-03-17T11:15:10.318Z,9.30
2019-03-17T11:17:39.271Z,9.40
2019-03-17T11:20:27.207Z,9.40
2019-03-17T11:22:55.933Z,9.40
2019-03-17T11:25:24.749Z,9.40
2019-03-17T11:27:53.463Z,9.40
2019-03-17T11:30:22.554Z,9.40
2019-03-17T11:32:51.596Z,9.30
2019-03-17T11:35:20.432Z,9.20
2019-03-17T11:37:49.585Z,9.10
2019-03-17T11:40:19.050Z,9.00
2019-03-17T11:42:49.821Z,9.00
2019-03-17T11:45:18.787Z,8.90
2019-03-17T11:47:47.790Z,8.80
2019-03-17T11:50:17.343Z,8.60
2019-03-17T11:52:46.141Z,8.60
2019-03-17T11:55:15.227Z,8.50
2019-03-17T11:57:44.225Z,8.50
2019-03-17T12:00:13.920Z,8.30
2019-03-17T12:02:42.897Z,8.40
2019-03-17T12:05:23.255Z,8.30
2019-03-17T12:07:52.451Z,8.20
2019-03-17T12:10:21.653Z,8.10
2019-03-17T12:12:51.262Z,8.00
2019-03-17T12:15:20.407Z,8.10
2019-03-17T12:17:49.714Z,8.00
2019-03-17T12:20:18.989Z,7.90
2019-03-17T12:22:52.205Z,7.90
2019-03-17T12:25:30.925Z,7.70
2019-03-17T12:27:59.751Z,7.60
2019-03-17T12:30:28.647Z,7.40
2019-03-17T12:32:57.451Z,7.40
2019-03-17T12:35:26.273Z,7.40
2019-03-17T12:37:55.176Z,7.40
2019-03-17T12:40:24.236Z,7.40
2019-03-17T12:42:53.346Z,7.40
2019-03-17T12:45:23.253Z,7.50
2019-03-17T12:47:52.697Z,7.50
2019-03-17T12:50:21.856Z,7.50
2019-03-17T12:52:50.946Z,7.50
2019-03-17T12:55:19.663Z,7.60
2019-03-17T12:57:48.844Z,7.70
2019-03-17T13:00:17.916Z,7.60
2019-03-17T13:02:46.674Z,7.70
2019-03-17T13:05:15.635Z,7.70
2019-03-17T13:07:44.732Z,7.60
2019-03-17T13:10:16.239Z,7.70
2019-03-17T13:12:45.351Z,7.70
2019-03-17T13:15:15.167Z,7.80
2019-03-17T13:17:43.987Z,7.80
2019-03-17T13:20:13.084Z,7.80
2019-03-17T13:22:41.904Z,7.90
2019-03-17T13:25:10.872Z,7.80
2019-03-17T13:27:39.635Z,7.90
2019-03-17T13:30:09.980Z,7.90
2019-03-17T13:32:39.076Z,7.90
2019-03-17T13:35:08.631Z,8.00
2019-03-17T13:37:37.406Z,8.00
2019-03-17T13:40:07.935Z,7.90
2019-03-17T13:42:36.675Z,7.90
2019-03-17T13:45:06.284Z,7.90
2019-03-17T13:47:35.021Z,8.00
2019-03-17T13:50:04.091Z,8.10
2019-03-17T13:52:32.989Z,8.10
2019-03-17T13:55:01.865Z,8.10
2019-03-17T13:57:30.713Z,8.10
2019-03-17T13:59:59.927Z,8.10
2019-03-17T14:02:29.067Z,8.00
2019-03-17T14:04:58.733Z,8.00
2019-03-17T14:07:30.824Z,8.10
2019-03-17T14:10:12.701Z,8.10
2019-03-17T14:12:35.867Z,8.20
2019-03-17T14:15:05.685Z,8.20
2019-03-17T14:17:35.293Z,8.30
2019-03-17T14:20:04.576Z,8.30
2019-03-17T14:22:33.381Z,8.40
2019-03-17T14:25:03.036Z,8.50
2019-03-17T14:27:36.830Z,8.60
2019-03-17T14:30:06.856Z,8.60
2019-03-17T14:32:35.595Z,8.70
2019-03-17T14:35:04.788Z,8.80
2019-03-17T14:37:34.212Z,8.90
2019-03-17T14:40:03.183Z,9.10
2019-03-17T14:42:31.968Z,9.30
2019-03-17T14:45:01.249Z,9.50
2019-03-17T14:47:30.260Z,9.60
2019-03-17T14:49:59.617Z,9.60
2019-03-17T14:52:28.322Z,9.60
2019-03-17T14:54:57.333Z,9.80
2019-03-17T14:57:29.007Z,9.90
2019-03-17T14:59:58.918Z,9.90
2019-03-17T15:02:31.122Z,9.90
2019-03-17T15:05:01.668Z,9.90
2019-03-17T15:07:30.424Z,9.90
2019-03-17T15:09:59.627Z,9.90
2019-03-17T15:12:28.431Z,9.90
2019-03-17T15:14:57.483Z,9.90
2019-03-17T15:17:26.403Z,9.80
2019-03-17T15:19:55.125Z,9.60
2019-03-17T15:22:23.892Z,9.60
2019-03-17T15:24:53.178Z,9.50
2019-03-17T15:27:21.910Z,9.50
2019-03-17T15:29:51.456Z,9.40
2019-03-17T15:32:20.583Z,9.40
2019-03-17T15:34:49.362Z,9.50
2019-03-17T15:37:18.357Z,9.60
2019-03-17T15:39:48.093Z,9.60
2019-03-17T15:42:19.263Z,9.60
2019-03-17T15:44:48.128Z,9.60
2019-03-17T15:47:17.573Z,9.50
2019-03-17T15:49:47.653Z,9.50
2019-03-17T15:52:17.499Z,9.40
2019-03-17T15:54:46.596Z,9.40
2019-03-17T15:57:16.125Z,9.50
2019-03-17T15:59:45.199Z,9.50
2019-03-17T16:02:15.772Z,9.40
2019-03-17T16:04:45.347Z,9.30
2019-03-17T16:07:14.107Z,9.30
2019-03-17T16:09:43.968Z,9.30
2019-03-17T16:12:15.288Z,9.30
2019-03-17T16:14:44.424Z,9.30
2019-03-17T16:17:13.674Z,9.20
2019-03-17T16:19:42.439Z,9.10
2019-03-17T16:22:13.799Z,9.00
2019-03-17T16:24:42.851Z,8.90
2019-03-17T16:27:11.942Z,8.90
2019-03-17T16:29:41.115Z,8.80
2019-03-17T16:32:10.616Z,8.60
2019-03-17T16:34:39.400Z,8.50
2019-03-17T16:37:08.850Z,8.40
2019-03-17T16:39:37.672Z,8.30
2019-03-17T16:42:06.503Z,8.30
2019-03-17T16:44:35.248Z,8.20
2019-03-17T16:47:04.480Z,8.10
2019-03-17T16:49:33.292Z,8.00
2019-03-17T16:52:21.290Z,8.00
2019-03-17T16:54:50.028Z,7.90
2019-03-17T16:57:19.965Z,7.80
2019-03-17T16:59:48.733Z,7.80
2019-03-17T17:02:17.484Z,7.80
2019-03-17T17:04:46.989Z,7.70
2019-03-17T17:07:15.840Z,7.70
2019-03-17T17:09:44.593Z,7.70
2019-03-17T17:12:13.688Z,7.60
2019-03-17T17:14:42.534Z,7.50
2019-03-17T17:17:11.697Z,7.50
2019-03-17T17:19:40.791Z,7.40
2019-03-17T17:22:09.999Z,7.40
2019-03-17T17:24:38.991Z,7.30
2019-03-17T17:27:08.080Z,7.30
2019-03-17T17:29:36.837Z,7.30
2019-03-17T17:32:06.092Z,7.20
2019-03-17T17:34:35.459Z,7.20
2019-03-17T17:37:04.248Z,7.20
2019-03-17T17:39:33.546Z,7.10
2019-03-17T17:42:08.780Z,7.10
2019-03-17T17:44:33.179Z,7.00
2019-03-17T17:47:01.931Z,7.00
2019-03-17T17:49:30.754Z,7.00
2019-03-17T17:51:59.523Z,7.00
2019-03-17T17:54:28.638Z,6.90
2019-03-17T17:56:57.726Z,6.90
2019-03-17T17:59:26.468Z,6.90
2019-03-17T18:01:55.205Z,6.80
2019-03-17T18:04:24.036Z,6.80
2019-03-17T18:06:52.791Z,6.80
2019-03-17T18:09:21.762Z,6.70
2019-03-17T18:11:50.507Z,6.70
2019-03-17T18:14:19.548Z,6.80
2019-03-17T18:16:48.335Z,6.80
2019-03-17T18:19:17.190Z,6.70
2019-03-17T18:21:46.045Z,6.80
2019-03-17T18:24:15.111Z,6.80
2019-03-17T18:26:44.103Z,6.80
2019-03-17T18:29:13.229Z,6.80
2019-03-17T18:31:42.060Z,6.70
2019-03-17T18:34:11.303Z,6.60
2019-03-17T18:36:40.472Z,6.60
2019-03-17T18:39:09.487Z,6.50
2019-03-17T18:41:38.691Z,6.50
2019-03-17T18:44:07.612Z,6.50
2019-03-17T18:46:36.424Z,6.50
2019-03-17T18:49:05.226Z,6.50
2019-03-17T18:51:34.251Z,6.50
2019-03-17T18:54:05.411Z,6.50
2019-03-17T18:56:33.756Z,6.50
2019-03-17T18:59:02.515Z,6.50
2019-03-17T19:01:31.578Z,6.50
2019-03-17T19:04:00.591Z,6.40
2019-03-17T19:06:29.446Z,6.30
2019-03-17T19:08:58.312Z,6.20
2019-03-17T19:11:27.434Z,6.10
2019-03-17T19:13:56.491Z,6.00
2019-03-17T19:16:25.334Z,5.90
2019-03-17T19:18:54.202Z,5.80
2019-03-17T19:21:23.430Z,5.70
2019-03-17T19:23:52.234Z,5.70
2019-03-17T19:26:21.041Z,5.70
2019-03-17T19:28:50.010Z,5.70
2019-03-17T19:31:19.705Z,5.70
2019-03-17T19:33:48.466Z,5.70
2019-03-17T19:36:18.133Z,5.80
2019-03-17T19:38:47.869Z,5.70
2019-03-17T19:41:16.696Z,5.70
2019-03-17T19:43:45.740Z,5.60
2019-03-17T19:46:14.508Z,5.50
2019-03-17T19:48:43.266Z,5.50
2019-03-17T19:51:12.109Z,5.40
2019-03-17T19:53:41.207Z,5.40
2019-03-17T19:56:10.068Z,5.40
2019-03-17T19:58:40.627Z,5.50
2019-03-17T20:01:09.770Z,5.60
2019-03-17T20:03:39.114Z,5.60
2019-03-17T20:06:10.595Z,5.50
2019-03-17T20:08:39.329Z,5.50
2019-03-17T20:11:08.188Z,5.50
2019-03-17T20:13:36.951Z,5.40
2019-03-17T20:16:06.842Z,5.20
2019-03-17T20:18:35.813Z,5.30
2019-03-17T20:21:04.691Z,5.30
2019-03-17T20:23:33.464Z,5.30
2019-03-17T20:26:02.266Z,5.30
2019-03-17T20:28:31.008Z,5.30
2019-03-17T20:30:59.842Z,5.30
2019-03-17T20:33:28.576Z,5.30
2019-03-17T20:35:57.577Z,5.30
2019-03-17T20:38:26.351Z,5.20
2019-03-17T20:40:55.445Z,5.30
2019-03-17T20:43:34.767Z,5.30
2019-03-17T20:45:55.437Z,5.30
2019-03-17T20:50:19.002Z,5.40
2019-03-17T20:52:51.193Z,5.40
2019-03-17T20:55:20.301Z,5.20
2019-03-17T20:57:49.048Z,5.10
2019-03-17T21:00:17.982Z,5.00
2019-03-17T21:02:47.193Z,4.80
2019-03-17T21:05:15.920Z,4.70
2019-03-17T21:07:45.176Z,4.70
2019-03-17T21:10:14.560Z,4.60
2019-03-17T21:12:43.518Z,4.60
2019-03-17T21:15:12.850Z,4.50
2019-03-17T21:17:41.700Z,4.60
2019-03-17T21:20:12.724Z,4.50
2019-03-17T21:22:41.891Z,4.50
2019-03-17T21:25:11.023Z,4.60
2019-03-17T21:27:39.836Z,4.60
2019-03-17T21:30:14.721Z,4.60
2019-03-17T21:32:43.488Z,4.60
2019-03-17T21:35:12.407Z,4.60
2019-03-17T21:37:41.664Z,4.60
2019-03-17T21:40:11.198Z,4.60
2019-03-17T21:42:39.979Z,4.50
2019-03-17T21:45:09.034Z,4.50
2019-03-17T21:47:37.826Z,4.40
2019-03-17T21:50:08.339Z,4.40
2019-03-17T21:52:37.458Z,4.30
2019-03-17T21:55:06.381Z,4.30
2019-03-17T21:57:35.502Z,4.30
2019-03-17T22:00:05.076Z,4.20
2019-03-17T22:02:33.935Z,4.20
2019-03-17T22:05:02.682Z,4.00
2019-03-17T22:07:31.512Z,4.00
2019-03-17T22:10:00.373Z,3.90
2019-03-17T22:12:29.614Z,3.90
2019-03-17T22:14:58.392Z,3.70
2019-03-17T22:17:27.129Z,3.60
2019-03-17T22:19:56.244Z,3.60
2019-03-17T22:22:25.366Z,3.50
2019-03-17T22:24:54.133Z,3.40
2019-03-17T22:27:23.148Z,3.40
2019-03-17T22:29:51.904Z,3.30
2019-03-17T22:32:20.722Z,3.30
2019-03-17T22:34:49.749Z,3.20
2019-03-17T22:37:18.501Z,3.20
2019-03-17T22:39:47.494Z,3.10
2019-03-17T22:42:16.229Z,3.10
2019-03-17T22:44:45.089Z,3.00
2019-03-17T22:47:13.896Z,2.90
2019-03-17T22:49:42.964Z,2.90
2019-03-17T22:52:11.764Z,2.80
2019-03-17T22:54:40.496Z,2.80
2019-03-17T22:57:09.501Z,2.80
2019-03-17T22:59:38.259Z,2.70
2019-03-17T23:02:07.144Z,2.80
2019-03-17T23:04:35.907Z,2.90
2019-03-17T23:07:04.725Z,2.90
2019-03-17T23:09:33.492Z,2.90
2019-03-17T23:12:02.618Z,2.90
2019-03-17T23:14:36.691Z,2.90
2019-03-17T23:17:02.002Z,2.90
2019-03-17T23:19:30.828Z,2.90
2019-03-17T23:21:59.578Z,2.90
2019-03-17T23:24:28.389Z,2.80
2019-03-17T23:26:57.138Z,2.70
2019-03-17T23:29:25.977Z,2.70
2019-03-17T23:31:54.793Z,2.70
2019-03-17T23:34:23.667Z,2.70
2019-03-17T23:36:52.423Z,2.70
2019-03-17T23:39:21.511Z,2.80
2019-03-17T23:41:50.603Z,3.00
2019-03-17T23:44:19.465Z,3.00
2019-03-17T23:46:48.291Z,3.00
2019-03-17T23:49:17.100Z,2.90
2019-03-17T23:51:45.857Z,2.90
2019-03-17T23:54:14.896Z,2.90
2019-03-17T23:56:43.908Z,2.90
2019-03-17T23:59:13.009Z,2.90
